LavenderCAM.net
Leatherhead Weather
 
Leatherhead Weather
 
 





Aviation weather for

London Heathrow (EGLL) and London Gatwick (EGKK)



London Heathrow (EGLL) METAR / Surface Actual
London / Heathrow Airport, United Kingdom (EGLL) 51-29N 000-27W 0M
Jul 20, 2019 - 08:50 AM EDT / 2019.07.20 1250 UTC
Wind: from the W (270 degrees) at 18 MPH (16 KT):0
Visibility: greater than 7 mile(s):0
Sky conditions: partly cloudy
Temperature: 75 F (24 C)
Dew Point: 55 F (13 C)
Relative Humidity: 50%
Pressure (altimeter): 29.77 in. Hg (1008 hPa)
ob: EGLL 201250Z AUTO 27016KT 9999 SCT041 24/13 Q1008
cycle: 13
London Heathrow (EGLL) TAF / Forecast
2019/07/20 12:09
TAF EGLL 201058Z 2012/2118 24012KT 9999 SCT040 PROB30 
      TEMPO 2012/2016 26015G25KT 4000 +SHRA


London Gatwick (EGKK) METAR / Surface Actual
London / Gatwick Airport, United Kingdom (EGKK) 51-09N 000-11W 0M
Jul 20, 2019 - 08:50 AM EDT / 2019.07.20 1250 UTC
Wind: from the SW (220 degrees) at 15 MPH (13 KT):0
Visibility: greater than 7 mile(s):0
Sky conditions: partly cloudy
Temperature: 71 F (22 C)
Dew Point: 60 F (16 C)
Relative Humidity: 68%
Pressure (altimeter): 29.77 in. Hg (1008 hPa)
ob: EGKK 201250Z 22013KT 9999 SCT023 22/16 Q1008
cycle: 13
London Gatwick (EGKK) TAF / Forecast
2019/07/20 12:15
TAF EGKK 201109Z 2012/2118 23012KT 9999 SCT025 PROB30 
      TEMPO 2012/2016 24015G25KT 4000 +SHRA